Vandenberg AFB, California
Current Conditions -  °F | °C
As of 7:55 AM on Friday 31 Oct 2014 (Local Time) from KVBG Reporting Station
Broken Clouds Broken Clouds  
Wind Chill: 61°   Ceiling: 2700
Heat Index: 61°   Visibility: 10mi
Dew Point: 56°   Wind: 5mph
Humidity: 83%   Direction: 130°SE
Pressure: 29.95"   Gusts: NA
Location:  34.7134°N, 120.557°W
Report Text: KVBG 311455Z 13004KT 10SM BKN027 BKN034 BKN042 16/13 A2995 RMK AO2 SLP133 T01610133 53004 $
Loading
Personal Weather Stations






























Interactive Weather Map
Tropical Storm Tracking
New forecast layout! Learn more

10-Day Weather Forecast

Advertisements
Track Severe Weather on mobile